sensor_id;sensor_type;location;lat;lon;timestamp;temperature;humidity
36690;DHT22;22676;51.120;3.702;2023-04-27T00:00:26;24.80;34.10
36690;DHT22;22676;51.120;3.702;2023-04-27T00:02:51;24.80;34.10
36690;DHT22;22676;51.120;3.702;2023-04-27T00:05:17;24.90;34.10
36690;DHT22;22676;51.120;3.702;2023-04-27T00:07:43;24.80;34.20
36690;DHT22;22676;51.120;3.702;2023-04-27T00:10:08;24.70;34.30
36690;DHT22;22676;51.120;3.702;2023-04-27T00:12:34;24.80;34.30
36690;DHT22;22676;51.120;3.702;2023-04-27T00:14:59;24.70;34.30
36690;DHT22;22676;51.120;3.702;2023-04-27T00:17:25;24.70;34.40
36690;DHT22;22676;51.120;3.702;2023-04-27T00:19:51;24.70;34.30
36690;DHT22;22676;51.120;3.702;2023-04-27T00:22:17;24.70;34.30
36690;DHT22;22676;51.120;3.702;2023-04-27T00:24:43;24.70;34.90
36690;DHT22;22676;51.120;3.702;2023-04-27T00:27:08;24.70;34.30
36690;DHT22;22676;51.120;3.702;2023-04-27T00:29:34;24.70;34.40
36690;DHT22;22676;51.120;3.702;2023-04-27T00:32:00;24.70;34.30
36690;DHT22;22676;51.120;3.702;2023-04-27T00:34:25;24.80;34.30
36690;DHT22;22676;51.120;3.702;2023-04-27T00:36:51;24.70;34.40
36690;DHT22;22676;51.120;3.702;2023-04-27T00:39:16;24.70;34.30
36690;DHT22;22676;51.120;3.702;2023-04-27T00:41:42;24.70;33.80
36690;DHT22;22676;51.120;3.702;2023-04-27T00:44:07;24.70;33.80
36690;DHT22;22676;51.120;3.702;2023-04-27T00:46:33;24.70;34.00
36690;DHT22;22676;51.120;3.702;2023-04-27T00:48:59;24.70;34.10
36690;DHT22;22676;51.120;3.702;2023-04-27T00:51:25;24.60;34.20
36690;DHT22;22676;51.120;3.702;2023-04-27T00:53:52;24.50;34.40
36690;DHT22;22676;51.120;3.702;2023-04-27T00:56:18;24.60;34.40
36690;DHT22;22676;51.120;3.702;2023-04-27T00:58:44;24.60;34.30
36690;DHT22;22676;51.120;3.702;2023-04-27T01:01:09;24.50;34.30
36690;DHT22;22676;51.120;3.702;2023-04-27T01:03:35;24.40;34.40
36690;DHT22;22676;51.120;3.702;2023-04-27T01:06:00;24.40;34.60
36690;DHT22;22676;51.120;3.702;2023-04-27T01:08:28;24.40;34.70
36690;DHT22;22676;51.120;3.702;2023-04-27T01:10:54;24.20;34.80
36690;DHT22;22676;51.120;3.702;2023-04-27T01:13:19;24.20;34.80
36690;DHT22;22676;51.120;3.702;2023-04-27T01:15:44;24.20;34.90
36690;DHT22;22676;51.120;3.702;2023-04-27T01:18:10;24.00;35.00
36690;DHT22;22676;51.120;3.702;2023-04-27T01:20:36;23.90;35.30
36690;DHT22;22676;51.120;3.702;2023-04-27T01:23:02;23.80;35.40
36690;DHT22;22676;51.120;3.702;2023-04-27T01:25:28;23.80;35.50
36690;DHT22;22676;51.120;3.702;2023-04-27T01:27:54;23.70;35.60
36690;DHT22;22676;51.120;3.702;2023-04-27T01:30:19;23.60;35.60
36690;DHT22;22676;51.120;3.702;2023-04-27T01:32:47;23.60;35.70
36690;DHT22;22676;51.120;3.702;2023-04-27T01:35:12;23.50;35.70
36690;DHT22;22676;51.120;3.702;2023-04-27T01:37:38;23.50;35.70
36690;DHT22;22676;51.120;3.702;2023-04-27T01:40:03;23.50;35.40
36690;DHT22;22676;51.120;3.702;2023-04-27T01:42:30;23.40;35.10
36690;DHT22;22676;51.120;3.702;2023-04-27T01:44:56;23.30;35.20
36690;DHT22;22676;51.120;3.702;2023-04-27T01:47:21;23.20;35.50
36690;DHT22;22676;51.120;3.702;2023-04-27T01:49:47;23.30;35.60
36690;DHT22;22676;51.120;3.702;2023-04-27T01:52:13;23.20;35.80
36690;DHT22;22676;51.120;3.702;2023-04-27T01:54:38;23.30;35.80
36690;DHT22;22676;51.120;3.702;2023-04-27T01:57:04;23.20;35.80
36690;DHT22;22676;51.120;3.702;2023-04-27T01:59:29;23.20;35.90
36690;DHT22;22676;51.120;3.702;2023-04-27T02:01:55;23.30;35.90
36690;DHT22;22676;51.120;3.702;2023-04-27T02:04:20;23.20;36.00
36690;DHT22;22676;51.120;3.702;2023-04-27T02:06:46;23.20;36.10
36690;DHT22;22676;51.120;3.702;2023-04-27T02:09:12;23.20;36.00
36690;DHT22;22676;51.120;3.702;2023-04-27T02:11:37;23.10;35.90
36690;DHT22;22676;51.120;3.702;2023-04-27T02:14:03;23.10;36.10
36690;DHT22;22676;51.120;3.702;2023-04-27T02:16:28;23.10;36.00
36690;DHT22;22676;51.120;3.702;2023-04-27T02:18:54;23.10;36.10
36690;DHT22;22676;51.120;3.702;2023-04-27T02:21:20;23.10;36.20
36690;DHT22;22676;51.120;3.702;2023-04-27T02:23:46;23.00;36.20
36690;DHT22;22676;51.120;3.702;2023-04-27T02:26:15;23.10;36.20
36690;DHT22;22676;51.120;3.702;2023-04-27T02:28:41;23.00;36.20
36690;DHT22;22676;51.120;3.702;2023-04-27T02:31:06;23.00;36.30
36690;DHT22;22676;51.120;3.702;2023-04-27T02:33:32;23.00;36.40
36690;DHT22;22676;51.120;3.702;2023-04-27T02:35:57;23.00;36.40
36690;DHT22;22676;51.120;3.702;2023-04-27T02:38:23;23.00;36.30
36690;DHT22;22676;51.120;3.702;2023-04-27T02:40:52;22.90;35.90
36690;DHT22;22676;51.120;3.702;2023-04-27T02:43:18;22.90;35.70
36690;DHT22;22676;51.120;3.702;2023-04-27T02:45:44;22.80;35.90
36690;DHT22;22676;51.120;3.702;2023-04-27T02:48:09;22.80;36.00
36690;DHT22;22676;51.120;3.702;2023-04-27T02:50:44;22.70;36.10
36690;DHT22;22676;51.120;3.702;2023-04-27T02:53:10;22.80;36.20
36690;DHT22;22676;51.120;3.702;2023-04-27T02:55:36;22.80;36.20
36690;DHT22;22676;51.120;3.702;2023-04-27T02:58:02;22.70;36.30
36690;DHT22;22676;51.120;3.702;2023-04-27T03:00:28;22.70;36.40
36690;DHT22;22676;51.120;3.702;2023-04-27T03:02:53;22.70;36.30
36690;DHT22;22676;51.120;3.702;2023-04-27T03:05:19;22.60;36.40
36690;DHT22;22676;51.120;3.702;2023-04-27T03:07:45;22.60;36.50
36690;DHT22;22676;51.120;3.702;2023-04-27T03:10:10;22.70;36.50
36690;DHT22;22676;51.120;3.702;2023-04-27T03:12:36;22.70;36.50
36690;DHT22;22676;51.120;3.702;2023-04-27T03:15:02;22.70;36.50
36690;DHT22;22676;51.120;3.702;2023-04-27T03:17:28;22.70;36.50
36690;DHT22;22676;51.120;3.702;2023-04-27T03:19:53;22.60;36.70
36690;DHT22;22676;51.120;3.702;2023-04-27T03:22:19;22.60;36.50
36690;DHT22;22676;51.120;3.702;2023-04-27T03:24:45;22.60;36.50
36690;DHT22;22676;51.120;3.702;2023-04-27T03:27:11;22.60;36.60
36690;DHT22;22676;51.120;3.702;2023-04-27T03:29:36;22.60;36.70
36690;DHT22;22676;51.120;3.702;2023-04-27T03:32:02;22.50;36.70
36690;DHT22;22676;51.120;3.702;2023-04-27T03:34:28;22.60;36.70
36690;DHT22;22676;51.120;3.702;2023-04-27T03:36:54;22.60;36.70
36690;DHT22;22676;51.120;3.702;2023-04-27T03:39:20;22.60;36.40
36690;DHT22;22676;51.120;3.702;2023-04-27T03:41:45;22.60;36.10
36690;DHT22;22676;51.120;3.702;2023-04-27T03:44:11;22.50;36.00
36690;DHT22;22676;51.120;3.702;2023-04-27T03:46:37;22.50;35.90
36690;DHT22;22676;51.120;3.702;2023-04-27T03:49:02;22.50;36.10
36690;DHT22;22676;51.120;3.702;2023-04-27T03:51:29;22.50;36.20
36690;DHT22;22676;51.120;3.702;2023-04-27T03:53:54;22.50;36.30
36690;DHT22;22676;51.120;3.702;2023-04-27T03:56:20;22.60;36.30
36690;DHT22;22676;51.120;3.702;2023-04-27T03:58:45;22.50;36.40
36690;DHT22;22676;51.120;3.702;2023-04-27T04:01:11;22.50;36.50
36690;DHT22;22676;51.120;3.702;2023-04-27T04:03:37;22.50;36.40
36690;DHT22;22676;51.120;3.702;2023-04-27T04:06:02;22.50;36.40
36690;DHT22;22676;51.120;3.702;2023-04-27T04:08:28;22.50;36.50
36690;DHT22;22676;51.120;3.702;2023-04-27T04:10:55;22.20;36.80
36690;DHT22;22676;51.120;3.702;2023-04-27T04:13:20;22.10;37.50
36690;DHT22;22676;51.120;3.702;2023-04-27T04:15:46;22.00;37.50
36690;DHT22;22676;51.120;3.702;2023-04-27T04:18:12;22.00;37.40
36690;DHT22;22676;51.120;3.702;2023-04-27T04:20:37;22.10;37.30
36690;DHT22;22676;51.120;3.702;2023-04-27T04:23:03;22.20;37.10
36690;DHT22;22676;51.120;3.702;2023-04-27T04:25:28;22.40;36.90
36690;DHT22;22676;51.120;3.702;2023-04-27T04:27:54;22.60;36.60
36690;DHT22;22676;51.120;3.702;2023-04-27T04:30:20;22.80;36.30
36690;DHT22;22676;51.120;3.702;2023-04-27T04:32:47;22.90;36.10
36690;DHT22;22676;51.120;3.702;2023-04-27T04:35:12;23.10;35.80
36690;DHT22;22676;51.120;3.702;2023-04-27T04:37:38;23.20;35.50
36690;DHT22;22676;51.120;3.702;2023-04-27T04:40:04;23.40;35.10
36690;DHT22;22676;51.120;3.702;2023-04-27T04:42:33;23.50;34.80
36690;DHT22;22676;51.120;3.702;2023-04-27T04:44:59;23.40;35.10
36690;DHT22;22676;51.120;3.702;2023-04-27T04:47:25;23.40;35.10
36690;DHT22;22676;51.120;3.702;2023-04-27T04:49:51;23.50;35.20
36690;DHT22;22676;51.120;3.702;2023-04-27T04:52:16;23.60;35.30
36690;DHT22;22676;51.120;3.702;2023-04-27T04:54:42;23.70;35.40
36690;DHT22;22676;51.120;3.702;2023-04-27T04:57:08;23.70;35.50
36690;DHT22;22676;51.120;3.702;2023-04-27T04:59:33;23.80;35.50
36690;DHT22;22676;51.120;3.702;2023-04-27T05:01:59;23.90;35.50
36690;DHT22;22676;51.120;3.702;2023-04-27T05:04:25;23.80;35.60
36690;DHT22;22676;51.120;3.702;2023-04-27T05:06:50;23.80;35.70
36690;DHT22;22676;51.120;3.702;2023-04-27T05:09:17;23.90;35.70
36690;DHT22;22676;51.120;3.702;2023-04-27T05:11:42;24.00;35.70
36690;DHT22;22676;51.120;3.702;2023-04-27T05:14:08;24.10;35.60
36690;DHT22;22676;51.120;3.702;2023-04-27T05:16:33;24.10;35.50
36690;DHT22;22676;51.120;3.702;2023-04-27T05:18:59;24.20;35.40
36690;DHT22;22676;51.120;3.702;2023-04-27T05:21:24;24.20;35.30
36690;DHT22;22676;51.120;3.702;2023-04-27T05:23:50;24.30;35.30
36690;DHT22;22676;51.120;3.702;2023-04-27T05:26:16;24.30;35.30
36690;DHT22;22676;51.120;3.702;2023-04-27T05:28:42;24.40;35.10
36690;DHT22;22676;51.120;3.702;2023-04-27T05:31:08;24.30;35.30
36690;DHT22;22676;51.120;3.702;2023-04-27T05:33:33;24.30;35.40
36690;DHT22;22676;51.120;3.702;2023-04-27T05:35:59;24.20;35.30
36690;DHT22;22676;51.120;3.702;2023-04-27T05:38:24;24.30;35.00
36690;DHT22;22676;51.120;3.702;2023-04-27T05:40:54;24.20;34.50
36690;DHT22;22676;51.120;3.702;2023-04-27T05:43:20;24.20;34.60
36690;DHT22;22676;51.120;3.702;2023-04-27T05:45:52;24.20;34.50
36690;DHT22;22676;51.120;3.702;2023-04-27T05:48:27;24.20;34.20
36690;DHT22;22676;51.120;3.702;2023-04-27T05:51:00;24.20;34.80
36690;DHT22;22676;51.120;3.702;2023-04-27T05:53:27;24.40;34.70
36690;DHT22;22676;51.120;3.702;2023-04-27T05:55:52;24.50;34.60
36690;DHT22;22676;51.120;3.702;2023-04-27T05:58:18;24.40;34.00
36690;DHT22;22676;51.120;3.702;2023-04-27T06:00:43;24.50;33.90
36690;DHT22;22676;51.120;3.702;2023-04-27T06:03:09;24.40;34.50
36690;DHT22;22676;51.120;3.702;2023-04-27T06:05:35;24.50;34.50
36690;DHT22;22676;51.120;3.702;2023-04-27T06:08:01;24.50;34.40
36690;DHT22;22676;51.120;3.702;2023-04-27T06:10:26;24.50;34.30
36690;DHT22;22676;51.120;3.702;2023-04-27T06:12:52;24.50;34.30
36690;DHT22;22676;51.120;3.702;2023-04-27T06:15:18;24.60;34.40
36690;DHT22;22676;51.120;3.702;2023-04-27T06:17:44;24.60;34.30
36690;DHT22;22676;51.120;3.702;2023-04-27T06:20:10;24.70;34.30
36690;DHT22;22676;51.120;3.702;2023-04-27T06:22:36;24.70;34.30
36690;DHT22;22676;51.120;3.702;2023-04-27T06:25:02;24.70;34.40
36690;DHT22;22676;51.120;3.702;2023-04-27T06:27:27;24.70;34.40
36690;DHT22;22676;51.120;3.702;2023-04-27T06:29:53;24.70;34.30
36690;DHT22;22676;51.120;3.702;2023-04-27T06:32:19;24.70;34.30
36690;DHT22;22676;51.120;3.702;2023-04-27T06:34:45;24.80;34.30
36690;DHT22;22676;51.120;3.702;2023-04-27T06:37:11;24.90;33.90
36690;DHT22;22676;51.120;3.702;2023-04-27T06:39:36;24.80;32.90
36690;DHT22;22676;51.120;3.702;2023-04-27T06:42:02;24.70;32.90
36690;DHT22;22676;51.120;3.702;2023-04-27T06:44:31;24.80;33.30
36690;DHT22;22676;51.120;3.702;2023-04-27T06:46:56;25.00;33.20
36690;DHT22;22676;51.120;3.702;2023-04-27T06:49:22;25.00;33.20
36690;DHT22;22676;51.120;3.702;2023-04-27T06:51:47;24.90;33.50
36690;DHT22;22676;51.120;3.702;2023-04-27T06:54:13;24.90;33.50
36690;DHT22;22676;51.120;3.702;2023-04-27T06:56:38;24.70;33.50
36690;DHT22;22676;51.120;3.702;2023-04-27T06:59:04;24.60;33.80
36690;DHT22;22676;51.120;3.702;2023-04-27T07:01:30;24.70;34.00
36690;DHT22;22676;51.120;3.702;2023-04-27T07:03:55;24.50;33.90
36690;DHT22;22676;51.120;3.702;2023-04-27T07:06:22;24.50;34.10
36690;DHT22;22676;51.120;3.702;2023-04-27T07:08:47;24.40;34.20
36690;DHT22;22676;51.120;3.702;2023-04-27T07:11:13;24.40;34.30
36690;DHT22;22676;51.120;3.702;2023-04-27T07:13:40;24.30;34.50
36690;DHT22;22676;51.120;3.702;2023-04-27T07:16:06;24.20;34.50
36690;DHT22;22676;51.120;3.702;2023-04-27T07:18:32;24.20;34.80
36690;DHT22;22676;51.120;3.702;2023-04-27T07:20:57;24.10;34.80
36690;DHT22;22676;51.120;3.702;2023-04-27T07:23:23;24.10;35.00
36690;DHT22;22676;51.120;3.702;2023-04-27T07:25:49;24.10;35.10
36690;DHT22;22676;51.120;3.702;2023-04-27T07:28:14;24.00;34.90
36690;DHT22;22676;51.120;3.702;2023-04-27T07:30:40;24.00;35.00
36690;DHT22;22676;51.120;3.702;2023-04-27T07:33:07;24.00;35.00
36690;DHT22;22676;51.120;3.702;2023-04-27T07:35:32;24.00;35.20
36690;DHT22;22676;51.120;3.702;2023-04-27T07:38:01;24.00;35.00
36690;DHT22;22676;51.120;3.702;2023-04-27T07:40:27;23.90;34.80
36690;DHT22;22676;51.120;3.702;2023-04-27T07:42:53;23.80;35.00
36690;DHT22;22676;51.120;3.702;2023-04-27T07:45:19;23.80;35.10
36690;DHT22;22676;51.120;3.702;2023-04-27T07:47:46;23.80;35.30
36690;DHT22;22676;51.120;3.702;2023-04-27T07:50:12;23.80;35.30
36690;DHT22;22676;51.120;3.702;2023-04-27T07:52:38;23.70;35.20
36690;DHT22;22676;51.120;3.702;2023-04-27T07:55:04;23.80;35.40
36690;DHT22;22676;51.120;3.702;2023-04-27T07:57:30;23.70;35.40
36690;DHT22;22676;51.120;3.702;2023-04-27T07:59:56;23.80;35.40
36690;DHT22;22676;51.120;3.702;2023-04-27T08:02:21;23.70;35.30
36690;DHT22;22676;51.120;3.702;2023-04-27T08:04:48;23.70;35.60
36690;DHT22;22676;51.120;3.702;2023-04-27T08:07:14;23.70;35.60
36690;DHT22;22676;51.120;3.702;2023-04-27T08:09:40;23.80;35.70
36690;DHT22;22676;51.120;3.702;2023-04-27T08:12:05;23.80;35.60
36690;DHT22;22676;51.120;3.702;2023-04-27T08:14:32;23.70;35.80
36690;DHT22;22676;51.120;3.702;2023-04-27T08:16:58;23.80;36.90
36690;DHT22;22676;51.120;3.702;2023-04-27T08:19:24;23.80;36.90
36690;DHT22;22676;51.120;3.702;2023-04-27T08:21:49;23.80;36.90
36690;DHT22;22676;51.120;3.702;2023-04-27T08:24:15;23.70;37.30
36690;DHT22;22676;51.120;3.702;2023-04-27T08:26:40;23.60;37.10
36690;DHT22;22676;51.120;3.702;2023-04-27T08:29:06;23.60;37.20
36690;DHT22;22676;51.120;3.702;2023-04-27T08:31:31;23.70;37.20
36690;DHT22;22676;51.120;3.702;2023-04-27T08:33:57;23.60;37.30
36690;DHT22;22676;51.120;3.702;2023-04-27T08:36:23;23.50;38.50
36690;DHT22;22676;51.120;3.702;2023-04-27T08:38:51;23.50;37.50
36690;DHT22;22676;51.120;3.702;2023-04-27T08:41:17;23.70;37.20
36690;DHT22;22676;51.120;3.702;2023-04-27T08:43:43;24.00;36.60
36690;DHT22;22676;51.120;3.702;2023-04-27T08:46:09;23.90;36.60
36690;DHT22;22676;51.120;3.702;2023-04-27T08:48:35;24.00;37.50
36690;DHT22;22676;51.120;3.702;2023-04-27T08:51:01;23.80;38.60
36690;DHT22;22676;51.120;3.702;2023-04-27T08:53:27;23.80;38.40
36690;DHT22;22676;51.120;3.702;2023-04-27T08:55:53;23.70;40.60
36690;DHT22;22676;51.120;3.702;2023-04-27T08:58:21;23.80;39.30
36690;DHT22;22676;51.120;3.702;2023-04-27T09:00:46;23.70;41.60
36690;DHT22;22676;51.120;3.702;2023-04-27T09:03:46;23.70;42.00
36690;DHT22;22676;51.120;3.702;2023-04-27T09:06:05;23.70;41.50
36690;DHT22;22676;51.120;3.702;2023-04-27T09:08:44;23.60;41.80
36690;DHT22;22676;51.120;3.702;2023-04-27T09:11:10;23.60;41.30
36690;DHT22;22676;51.120;3.702;2023-04-27T09:13:39;23.60;41.30
36690;DHT22;22676;51.120;3.702;2023-04-27T09:16:06;23.60;41.30
36690;DHT22;22676;51.120;3.702;2023-04-27T09:18:34;23.50;41.20
36690;DHT22;22676;51.120;3.702;2023-04-27T09:21:00;23.40;41.10
36690;DHT22;22676;51.120;3.702;2023-04-27T09:23:35;23.50;41.10
36690;DHT22;22676;51.120;3.702;2023-04-27T09:26:02;23.50;40.80
36690;DHT22;22676;51.120;3.702;2023-04-27T09:28:37;23.60;40.60
36690;DHT22;22676;51.120;3.702;2023-04-27T09:31:03;23.60;40.50
36690;DHT22;22676;51.120;3.702;2023-04-27T09:33:29;23.60;40.40
36690;DHT22;22676;51.120;3.702;2023-04-27T09:35:56;23.70;40.20
36690;DHT22;22676;51.120;3.702;2023-04-27T09:38:22;23.70;39.60
36690;DHT22;22676;51.120;3.702;2023-04-27T09:40:51;23.80;39.10
36690;DHT22;22676;51.120;3.702;2023-04-27T09:43:17;23.80;38.40
36690;DHT22;22676;51.120;3.702;2023-04-27T09:45:42;23.80;38.70
36690;DHT22;22676;51.120;3.702;2023-04-27T09:48:08;23.90;38.50
36690;DHT22;22676;51.120;3.702;2023-04-27T09:50:38;24.00;38.30
36690;DHT22;22676;51.120;3.702;2023-04-27T09:53:05;24.00;38.20
36690;DHT22;22676;51.120;3.702;2023-04-27T10:08:28;24.00;37.80
36690;DHT22;22676;51.120;3.702;2023-04-27T10:10:53;24.00;37.70
36690;DHT22;22676;51.120;3.702;2023-04-27T10:13:23;24.00;37.60
36690;DHT22;22676;51.120;3.702;2023-04-27T10:15:49;24.00;37.50
36690;DHT22;22676;51.120;3.702;2023-04-27T10:18:25;24.00;37.60
36690;DHT22;22676;51.120;3.702;2023-04-27T10:20:52;24.10;37.60
36690;DHT22;22676;51.120;3.702;2023-04-27T10:23:24;24.10;37.70
36690;DHT22;22676;51.120;3.702;2023-04-27T10:25:50;24.10;37.50
36690;DHT22;22676;51.120;3.702;2023-04-27T10:28:16;24.10;37.60
36690;DHT22;22676;51.120;3.702;2023-04-27T10:30:43;24.20;37.60
36690;DHT22;22676;51.120;3.702;2023-04-27T10:33:10;24.10;37.60
36690;DHT22;22676;51.120;3.702;2023-04-27T10:35:41;24.20;37.40
36690;DHT22;22676;51.120;3.702;2023-04-27T10:40:35;24.30;36.70
36690;DHT22;22676;51.120;3.702;2023-04-27T10:43:08;24.30;36.50
36690;DHT22;22676;51.120;3.702;2023-04-27T10:45:34;24.10;36.90
36690;DHT22;22676;51.120;3.702;2023-04-27T10:48:00;24.20;36.90
36690;DHT22;22676;51.120;3.702;2023-04-27T10:50:26;24.20;37.10
36690;DHT22;22676;51.120;3.702;2023-04-27T10:52:51;24.20;37.00
36690;DHT22;22676;51.120;3.702;2023-04-27T10:55:21;24.20;36.90
36690;DHT22;22676;51.120;3.702;2023-04-27T11:00:13;24.20;37.00
36690;DHT22;22676;51.120;3.702;2023-04-27T11:02:39;24.20;36.90
36690;DHT22;22676;51.120;3.702;2023-04-27T11:05:15;24.10;37.00
36690;DHT22;22676;51.120;3.702;2023-04-27T11:07:41;24.20;36.90
36690;DHT22;22676;51.120;3.702;2023-04-27T11:10:07;24.20;37.20
36690;DHT22;22676;51.120;3.702;2023-04-27T11:12:33;24.20;37.40
36690;DHT22;22676;51.120;3.702;2023-04-27T11:14:58;24.20;37.20
36690;DHT22;22676;51.120;3.702;2023-04-27T11:17:28;24.20;37.20
36690;DHT22;22676;51.120;3.702;2023-04-27T11:19:53;24.20;37.20
36690;DHT22;22676;51.120;3.702;2023-04-27T11:22:19;24.20;37.20
36690;DHT22;22676;51.120;3.702;2023-04-27T11:24:48;24.20;37.20
36690;DHT22;22676;51.120;3.702;2023-04-27T11:27:13;24.30;37.10
36690;DHT22;22676;51.120;3.702;2023-04-27T11:29:39;24.40;37.00
36690;DHT22;22676;51.120;3.702;2023-04-27T11:32:05;24.50;36.80
36690;DHT22;22676;51.120;3.702;2023-04-27T11:34:31;24.60;37.40
36690;DHT22;22676;51.120;3.702;2023-04-27T11:37:02;24.60;36.70
36690;DHT22;22676;51.120;3.702;2023-04-27T11:39:37;24.70;36.30
36690;DHT22;22676;51.120;3.702;2023-04-27T11:44:48;24.90;35.90
36690;DHT22;22676;51.120;3.702;2023-04-27T11:47:17;25.00;35.80
36690;DHT22;22676;51.120;3.702;2023-04-27T11:49:50;24.90;35.90
36690;DHT22;22676;51.120;3.702;2023-04-27T11:52:16;24.90;35.90
36690;DHT22;22676;51.120;3.702;2023-04-27T11:54:49;25.00;35.80
36690;DHT22;22676;51.120;3.702;2023-04-27T11:57:15;25.10;35.70
36690;DHT22;22676;51.120;3.702;2023-04-27T11:59:41;25.20;35.70
36690;DHT22;22676;51.120;3.702;2023-04-27T12:02:07;25.30;35.60
36690;DHT22;22676;51.120;3.702;2023-04-27T12:04:32;25.30;35.50
36690;DHT22;22676;51.120;3.702;2023-04-27T12:06:59;25.30;35.40
36690;DHT22;22676;51.120;3.702;2023-04-27T12:09:25;25.50;35.30
36690;DHT22;22676;51.120;3.702;2023-04-27T12:11:51;25.50;35.10
36690;DHT22;22676;51.120;3.702;2023-04-27T12:14:19;25.60;35.10
36690;DHT22;22676;51.120;3.702;2023-04-27T12:16:44;25.70;35.00
36690;DHT22;22676;51.120;3.702;2023-04-27T12:19:10;25.80;35.00
36690;DHT22;22676;51.120;3.702;2023-04-27T12:21:36;25.80;34.90
36690;DHT22;22676;51.120;3.702;2023-04-27T12:24:02;25.90;34.90
36690;DHT22;22676;51.120;3.702;2023-04-27T12:26:27;26.00;34.80
36690;DHT22;22676;51.120;3.702;2023-04-27T12:28:53;26.00;34.80
36690;DHT22;22676;51.120;3.702;2023-04-27T12:31:19;25.80;34.90
36690;DHT22;22676;51.120;3.702;2023-04-27T12:33:48;25.80;35.00
36690;DHT22;22676;51.120;3.702;2023-04-27T12:36:15;25.70;35.00
36690;DHT22;22676;51.120;3.702;2023-04-27T12:38:41;25.60;35.10
36690;DHT22;22676;51.120;3.702;2023-04-27T12:41:07;25.50;35.00
36690;DHT22;22676;51.120;3.702;2023-04-27T12:43:32;25.50;34.90
36690;DHT22;22676;51.120;3.702;2023-04-27T12:46:00;25.50;34.70
36690;DHT22;22676;51.120;3.702;2023-04-27T12:48:26;25.50;34.70
36690;DHT22;22676;51.120;3.702;2023-04-27T12:50:51;25.50;34.90
36690;DHT22;22676;51.120;3.702;2023-04-27T12:53:17;25.60;34.90
36690;DHT22;22676;51.120;3.702;2023-04-27T12:55:43;25.70;34.80
36690;DHT22;22676;51.120;3.702;2023-04-27T12:58:08;25.60;34.60
36690;DHT22;22676;51.120;3.702;2023-04-27T13:00:34;25.80;34.60
36690;DHT22;22676;51.120;3.702;2023-04-27T13:03:00;25.80;34.50
36690;DHT22;22676;51.120;3.702;2023-04-27T13:05:25;25.80;34.20
36690;DHT22;22676;51.120;3.702;2023-04-27T13:07:51;25.80;34.30
36690;DHT22;22676;51.120;3.702;2023-04-27T13:10:16;25.80;34.30
36690;DHT22;22676;51.120;3.702;2023-04-27T13:12:42;25.80;34.20
36690;DHT22;22676;51.120;3.702;2023-04-27T13:15:08;25.90;34.20
36690;DHT22;22676;51.120;3.702;2023-04-27T13:17:34;25.80;34.20
36690;DHT22;22676;51.120;3.702;2023-04-27T13:19:59;25.80;34.20
36690;DHT22;22676;51.120;3.702;2023-04-27T13:22:25;25.80;34.30
36690;DHT22;22676;51.120;3.702;2023-04-27T13:24:50;25.80;34.30
36690;DHT22;22676;51.120;3.702;2023-04-27T13:27:16;25.70;34.30
36690;DHT22;22676;51.120;3.702;2023-04-27T13:29:42;25.70;34.30
36690;DHT22;22676;51.120;3.702;2023-04-27T13:32:07;25.60;34.30
36690;DHT22;22676;51.120;3.702;2023-04-27T13:34:33;25.70;34.50
36690;DHT22;22676;51.120;3.702;2023-04-27T13:36:58;25.60;34.40
36690;DHT22;22676;51.120;3.702;2023-04-27T13:39:24;25.50;34.50
36690;DHT22;22676;51.120;3.702;2023-04-27T13:41:50;25.50;34.40
36690;DHT22;22676;51.120;3.702;2023-04-27T13:44:16;25.40;33.70
36690;DHT22;22676;51.120;3.702;2023-04-27T13:46:41;25.40;33.10
36690;DHT22;22676;51.120;3.702;2023-04-27T13:49:07;25.20;33.50
36690;DHT22;22676;51.120;3.702;2023-04-27T13:51:32;25.20;33.00
36690;DHT22;22676;51.120;3.702;2023-04-27T13:53:58;25.20;32.20
36690;DHT22;22676;51.120;3.702;2023-04-27T13:56:23;25.10;33.40
36690;DHT22;22676;51.120;3.702;2023-04-27T13:58:49;25.00;33.90
36690;DHT22;22676;51.120;3.702;2023-04-27T14:01:15;25.00;33.90
36690;DHT22;22676;51.120;3.702;2023-04-27T14:03:41;24.90;33.90
36690;DHT22;22676;51.120;3.702;2023-04-27T14:06:06;25.10;33.50
36690;DHT22;22676;51.120;3.702;2023-04-27T14:08:32;25.00;33.70
36690;DHT22;22676;51.120;3.702;2023-04-27T14:10:57;25.20;33.70
36690;DHT22;22676;51.120;3.702;2023-04-27T14:13:23;25.10;33.70
36690;DHT22;22676;51.120;3.702;2023-04-27T14:15:49;25.00;33.80
36690;DHT22;22676;51.120;3.702;2023-04-27T14:18:17;25.10;33.70
36690;DHT22;22676;51.120;3.702;2023-04-27T14:20:43;25.10;33.60
36690;DHT22;22676;51.120;3.702;2023-04-27T14:23:09;25.10;33.70
36690;DHT22;22676;51.120;3.702;2023-04-27T14:25:35;25.00;33.70
36690;DHT22;22676;51.120;3.702;2023-04-27T14:28:01;24.90;33.90
36690;DHT22;22676;51.120;3.702;2023-04-27T14:30:27;24.80;34.00
36690;DHT22;22676;51.120;3.702;2023-04-27T14:32:53;24.80;34.20
36690;DHT22;22676;51.120;3.702;2023-04-27T14:35:18;24.80;34.20
36690;DHT22;22676;51.120;3.702;2023-04-27T14:37:45;24.80;34.20
36690;DHT22;22676;51.120;3.702;2023-04-27T14:40:11;24.60;34.80
36690;DHT22;22676;51.120;3.702;2023-04-27T14:42:37;24.70;34.10
36690;DHT22;22676;51.120;3.702;2023-04-27T14:45:02;24.60;34.60
36690;DHT22;22676;51.120;3.702;2023-04-27T14:47:28;24.70;34.60
36690;DHT22;22676;51.120;3.702;2023-04-27T14:49:53;24.50;34.70
36690;DHT22;22676;51.120;3.702;2023-04-27T14:52:19;24.50;35.10
36690;DHT22;22676;51.120;3.702;2023-04-27T14:54:44;24.60;35.00
36690;DHT22;22676;51.120;3.702;2023-04-27T14:57:10;24.70;35.20
36690;DHT22;22676;51.120;3.702;2023-04-27T14:59:35;24.70;34.80
36690;DHT22;22676;51.120;3.702;2023-04-27T15:02:01;24.70;35.10
36690;DHT22;22676;51.120;3.702;2023-04-27T15:04:27;24.60;34.50
36690;DHT22;22676;51.120;3.702;2023-04-27T15:06:53;24.50;34.80
36690;DHT22;22676;51.120;3.702;2023-04-27T15:09:19;24.60;35.40
36690;DHT22;22676;51.120;3.702;2023-04-27T15:11:44;24.50;34.50
36690;DHT22;22676;51.120;3.702;2023-04-27T15:14:10;24.60;35.00
36690;DHT22;22676;51.120;3.702;2023-04-27T15:16:36;24.60;35.10
36690;DHT22;22676;51.120;3.702;2023-04-27T15:19:02;24.60;35.10
36690;DHT22;22676;51.120;3.702;2023-04-27T15:21:28;24.60;34.90
36690;DHT22;22676;51.120;3.702;2023-04-27T15:23:54;24.50;34.00
36690;DHT22;22676;51.120;3.702;2023-04-27T15:26:19;24.50;34.70
36690;DHT22;22676;51.120;3.702;2023-04-27T15:28:45;24.60;34.70
36690;DHT22;22676;51.120;3.702;2023-04-27T15:31:11;24.70;34.50
36690;DHT22;22676;51.120;3.702;2023-04-27T15:33:37;24.70;34.20
36690;DHT22;22676;51.120;3.702;2023-04-27T15:36:02;24.50;33.70
36690;DHT22;22676;51.120;3.702;2023-04-27T15:38:28;24.50;31.70
36690;DHT22;22676;51.120;3.702;2023-04-27T15:40:53;24.50;31.30
36690;DHT22;22676;51.120;3.702;2023-04-27T15:43:19;24.50;31.30